createdAt,value
2022-10-25T00:01:20.939Z,16.65
2022-10-25T00:04:23.980Z,16.23
2022-10-25T00:07:26.598Z,16.57
2022-10-25T00:10:30.026Z,16.15
2022-10-25T00:13:33.383Z,16.85
2022-10-25T00:16:38.338Z,14.23
2022-10-25T00:19:40.961Z,14.38
2022-10-25T00:22:43.982Z,14.03
2022-10-25T00:25:48.475Z,13.75
2022-10-25T00:28:54.315Z,15.60
2022-10-25T00:31:56.875Z,14.48
2022-10-25T00:34:59.848Z,15.63
2022-10-25T00:38:02.976Z,15.23
2022-10-25T00:41:06.975Z,14.98
2022-10-25T00:44:40.582Z,14.95
2022-10-25T00:47:53.113Z,15.40
2022-10-25T00:50:56.204Z,15.45
2022-10-25T00:53:59.274Z,15.43
2022-10-25T00:57:08.900Z,14.15
2022-10-25T01:00:12.699Z,14.50
2022-10-25T01:03:17.266Z,15.18
2022-10-25T01:06:53.422Z,14.90
2022-10-25T01:09:57.591Z,15.33
2022-10-25T01:13:02.676Z,16.80
2022-10-25T01:16:35.940Z,17.48
2022-10-25T01:20:09.628Z,27.02
2022-10-25T01:23:24.775Z,15.25
2022-10-25T01:27:05.818Z,14.60
2022-10-25T01:31:03.567Z,14.55
2022-10-25T01:34:17.950Z,14.52
2022-10-25T01:37:31.177Z,14.02
2022-10-25T01:40:59.725Z,14.05
2022-10-25T01:44:42.160Z,14.00
2022-10-25T01:47:53.052Z,15.65
2022-10-25T01:50:55.648Z,15.32
2022-10-25T01:53:58.627Z,15.13
2022-10-25T01:57:34.546Z,15.45
2022-10-25T02:00:53.777Z,17.07
2022-10-25T02:04:19.993Z,16.87
2022-10-25T02:07:35.953Z,17.70
2022-10-25T02:10:50.839Z,16.90
2022-10-25T02:14:15.315Z,15.68
2022-10-25T02:17:24.574Z,16.10
2022-10-25T02:20:32.080Z,16.30
2022-10-25T02:23:36.506Z,16.10
2022-10-25T02:26:43.527Z,15.77
2022-10-25T02:29:47.555Z,15.73
2022-10-25T02:32:51.849Z,15.97
2022-10-25T02:36:08.967Z,15.10
2022-10-25T02:39:11.888Z,15.52
2022-10-25T02:42:14.457Z,14.68
2022-10-25T02:45:17.525Z,15.07
2022-10-25T02:48:20.115Z,15.27
2022-10-25T02:51:23.364Z,15.13
2022-10-25T02:54:26.045Z,15.35
2022-10-25T02:57:36.584Z,14.23
2022-10-25T03:00:39.208Z,14.73
2022-10-25T03:03:42.976Z,15.33
2022-10-25T03:06:46.579Z,15.93
2022-10-25T03:09:49.567Z,15.10
2022-10-25T03:12:52.102Z,14.95
2022-10-25T03:15:55.125Z,16.23
2022-10-25T03:18:58.939Z,15.10
2022-10-25T03:22:02.966Z,15.43
2022-10-25T03:25:06.174Z,15.27
2022-10-25T03:28:09.518Z,18.90
2022-10-25T03:31:13.989Z,14.82
2022-10-25T03:34:17.233Z,14.20
2022-10-25T03:37:21.190Z,14.18
2022-10-25T03:40:25.301Z,14.65
2022-10-25T03:43:28.427Z,15.57
2022-10-25T03:46:31.335Z,14.95
2022-10-25T03:49:33.923Z,15.60
2022-10-25T03:52:36.934Z,15.73
2022-10-25T03:55:42.123Z,14.87
2022-10-25T03:58:45.044Z,14.73
2022-10-25T04:01:48.014Z,14.70
2022-10-25T04:04:50.972Z,13.80
2022-10-25T04:07:54.015Z,14.50
2022-10-25T04:10:56.934Z,14.40
2022-10-25T04:13:59.575Z,16.33
2022-10-25T04:17:02.470Z,13.98
2022-10-25T04:20:05.758Z,13.33
2022-10-25T04:23:08.620Z,14.25
2022-10-25T04:26:11.317Z,13.65
2022-10-25T04:29:14.452Z,14.38
2022-10-25T04:32:17.252Z,15.50
2022-10-25T04:35:20.681Z,13.43
2022-10-25T04:38:24.463Z,14.45
2022-10-25T04:41:27.642Z,13.02
2022-10-25T04:44:30.311Z,12.52
2022-10-25T04:47:33.476Z,13.00
2022-10-25T04:50:37.874Z,13.07
2022-10-25T04:53:40.911Z,11.77
2022-10-25T04:56:43.558Z,12.43
2022-10-25T04:59:46.387Z,13.82
2022-10-25T05:02:52.196Z,13.07
2022-10-25T05:05:55.502Z,13.37
2022-10-25T05:08:58.155Z,13.20
2022-10-25T05:12:01.215Z,13.60
2022-10-25T05:15:04.981Z,12.65
2022-10-25T05:18:07.851Z,11.93
2022-10-25T05:21:10.639Z,13.67
2022-10-25T05:24:13.513Z,13.48
2022-10-25T05:27:16.528Z,13.95
2022-10-25T05:30:19.478Z,16.48
2022-10-25T05:33:22.167Z,16.75
2022-10-25T05:36:25.945Z,15.90
2022-10-25T05:39:28.517Z,14.32
2022-10-25T05:42:31.437Z,14.32
2022-10-25T05:45:34.005Z,13.95
2022-10-25T05:48:37.630Z,15.05
2022-10-25T05:51:40.265Z,14.57
2022-10-25T05:54:43.129Z,13.88
2022-10-25T05:57:51.834Z,14.05
2022-10-25T06:00:59.813Z,15.13
2022-10-25T06:04:02.798Z,15.35
2022-10-25T06:07:06.808Z,15.67
2022-10-25T06:10:10.865Z,14.18
2022-10-25T06:13:13.593Z,13.62
2022-10-25T06:16:18.352Z,14.95
2022-10-25T06:19:21.072Z,14.18
2022-10-25T06:22:23.947Z,13.77
2022-10-25T06:25:26.599Z,14.13
2022-10-25T06:28:29.977Z,15.82
2022-10-25T06:31:33.266Z,15.80
2022-10-25T06:34:36.145Z,16.42
2022-10-25T06:37:39.140Z,15.60
2022-10-25T06:40:42.015Z,18.85
2022-10-25T06:43:45.461Z,17.45
2022-10-25T06:47:18.371Z,15.95
2022-10-25T06:50:11.045Z,16.73
2022-10-25T06:53:14.827Z,14.33
2022-10-25T06:56:17.484Z,14.68
2022-10-25T06:59:20.723Z,13.75
2022-10-25T07:02:23.693Z,15.75
2022-10-25T07:05:29.422Z,15.27
2022-10-25T07:08:36.605Z,16.90
2022-10-25T07:11:39.722Z,15.63
2022-10-25T07:14:44.677Z,17.37
2022-10-25T07:17:48.878Z,16.23
2022-10-25T07:20:51.665Z,16.95
2022-10-25T07:23:54.579Z,13.33
2022-10-25T07:26:57.120Z,14.87
2022-10-25T07:30:00.195Z,14.35
2022-10-25T07:33:03.500Z,15.10
2022-10-25T07:36:10.979Z,13.27
2022-10-25T07:39:15.405Z,15.07
2022-10-25T07:42:18.403Z,14.18
2022-10-25T07:45:23.643Z,12.93
2022-10-25T07:48:28.309Z,12.25
2022-10-25T07:51:30.890Z,11.32
2022-10-25T07:54:33.858Z,11.57
2022-10-25T07:57:36.552Z,11.73
2022-10-25T08:00:39.625Z,11.10
2022-10-25T08:03:42.625Z,11.30
2022-10-25T08:06:45.272Z,10.57
2022-10-25T08:09:48.314Z,9.83
2022-10-25T08:12:51.062Z,10.15
2022-10-25T08:15:56.701Z,10.75
2022-10-25T08:19:00.544Z,10.25
2022-10-25T08:22:04.221Z,10.32
2022-10-25T08:25:07.241Z,10.80
2022-10-25T08:28:10.230Z,10.60
2022-10-25T08:31:12.802Z,11.88
2022-10-25T08:34:15.776Z,11.15
2022-10-25T08:37:18.476Z,10.57
2022-10-25T08:40:25.778Z,12.63
2022-10-25T08:43:51.326Z,11.48
2022-10-25T08:47:22.619Z,10.25
2022-10-25T08:50:53.780Z,10.70
2022-10-25T08:54:00.577Z,10.90
2022-10-25T08:57:17.688Z,10.83
2022-10-25T09:00:24.307Z,8.73
2022-10-25T09:03:27.607Z,9.77
2022-10-25T09:07:27.180Z,9.98
2022-10-25T09:10:50.700Z,8.32
2022-10-25T09:14:09.080Z,9.07
2022-10-25T09:17:19.312Z,8.30
2022-10-25T09:20:31.798Z,7.62
2022-10-25T09:23:34.409Z,9.13
2022-10-25T09:26:44.709Z,8.57
2022-10-25T09:30:01.331Z,9.90
2022-10-25T09:33:11.728Z,8.27
2022-10-25T09:36:15.194Z,8.93
2022-10-25T09:39:44.006Z,8.77
2022-10-25T09:43:08.712Z,7.35
2022-10-25T09:46:23.095Z,7.83
2022-10-25T09:49:38.927Z,7.12
2022-10-25T09:53:13.006Z,6.90
2022-10-25T09:56:17.483Z,5.65
2022-10-25T09:59:22.174Z,5.40
2022-10-25T10:02:27.543Z,6.03
2022-10-25T10:05:32.926Z,5.43
2022-10-25T10:08:36.537Z,5.40
2022-10-25T10:11:41.631Z,4.07
2022-10-25T10:14:57.259Z,4.53
2022-10-25T10:18:25.140Z,4.70
2022-10-25T10:21:27.774Z,4.50
2022-10-25T10:24:30.736Z,5.32
2022-10-25T10:27:34.327Z,5.00
2022-10-25T10:30:39.085Z,4.57
2022-10-25T10:33:47.235Z,4.53
2022-10-25T10:37:07.590Z,4.30
2022-10-25T10:40:10.158Z,4.90
2022-10-25T10:43:42.577Z,4.12
2022-10-25T10:46:47.087Z,4.25
2022-10-25T10:49:50.120Z,3.80
2022-10-25T10:53:03.780Z,3.70
2022-10-25T10:56:08.235Z,3.30
2022-10-25T10:59:43.076Z,2.60
2022-10-25T11:02:47.001Z,2.97
2022-10-25T11:05:54.085Z,3.30
2022-10-25T11:09:20.893Z,2.70
2022-10-25T11:12:23.547Z,2.72
2022-10-25T11:15:30.087Z,3.03
2022-10-25T11:18:56.238Z,3.00
2022-10-25T11:22:32.084Z,3.00
2022-10-25T11:25:53.081Z,2.65
2022-10-25T11:29:10.982Z,2.70
2022-10-25T11:32:32.214Z,2.75
2022-10-25T11:35:43.123Z,2.90
2022-10-25T11:39:01.066Z,2.63
2022-10-25T11:42:31.016Z,1.95
2022-10-25T11:45:44.378Z,2.40
2022-10-25T11:48:49.891Z,2.12
2022-10-25T11:52:22.354Z,2.03
2022-10-25T11:55:31.485Z,3.03
2022-10-25T11:58:46.333Z,1.90
2022-10-25T12:01:58.647Z,2.25
2022-10-25T12:05:17.914Z,1.95
2022-10-25T12:08:29.466Z,2.42
2022-10-25T12:11:40.672Z,2.33
2022-10-25T12:14:47.891Z,2.22
2022-10-25T12:17:52.424Z,1.98
2022-10-25T12:20:56.065Z,2.10
2022-10-25T12:24:00.567Z,1.95
2022-10-25T12:27:04.431Z,2.60
2022-10-25T12:30:15.204Z,1.90
2022-10-25T12:33:39.875Z,2.20
2022-10-25T12:36:51.480Z,1.87
2022-10-25T12:39:54.218Z,2.10
2022-10-25T12:43:05.955Z,1.87
2022-10-25T12:46:11.397Z,1.85
2022-10-25T12:49:45.343Z,1.65
2022-10-25T12:53:25.523Z,1.80
2022-10-25T12:57:02.857Z,1.90
2022-10-25T13:03:32.802Z,1.83
2022-10-25T13:06:39.159Z,1.73
2022-10-25T13:09:43.115Z,1.80
2022-10-25T13:13:08.123Z,1.92
2022-10-25T13:16:11.291Z,1.60
2022-10-25T13:19:30.640Z,1.33
2022-10-25T13:22:46.063Z,1.70
2022-10-25T13:25:48.583Z,1.40
2022-10-25T13:28:57.261Z,1.73
2022-10-25T13:32:10.289Z,1.50
2022-10-25T13:35:21.376Z,1.40
2022-10-25T13:38:28.359Z,1.58
2022-10-25T13:41:44.772Z,1.20
2022-10-25T13:44:54.850Z,1.40
2022-10-25T13:47:58.068Z,1.13
2022-10-25T13:51:09.437Z,1.52
2022-10-25T13:54:12.841Z,1.30
2022-10-25T13:57:46.523Z,1.55
2022-10-25T14:00:52.956Z,1.20
2022-10-25T14:04:04.606Z,1.53
2022-10-25T14:07:45.651Z,1.20
2022-10-25T14:10:53.122Z,1.55
2022-10-25T14:14:01.872Z,1.27
2022-10-25T14:17:07.453Z,1.60
2022-10-25T14:20:27.945Z,1.40
2022-10-25T14:23:34.828Z,1.30
2022-10-25T14:26:37.513Z,1.60
2022-10-25T14:29:41.233Z,1.50
2022-10-25T14:32:58.795Z,1.12
2022-10-25T14:36:23.036Z,1.70
2022-10-25T14:39:28.344Z,1.20
2022-10-25T14:42:31.303Z,1.42
2022-10-25T14:45:33.920Z,1.12
2022-10-25T14:48:37.033Z,0.80
2022-10-25T14:51:42.687Z,0.97
2022-10-25T14:54:47.576Z,1.02
2022-10-25T14:57:53.840Z,1.00
2022-10-25T15:01:04.139Z,0.85
2022-10-25T15:04:06.903Z,0.85
2022-10-25T15:07:19.004Z,1.20
2022-10-25T15:10:30.545Z,1.30
2022-10-25T15:13:42.633Z,1.30
2022-10-25T15:16:48.064Z,1.50
2022-10-25T15:20:03.139Z,1.30
2022-10-25T15:23:15.278Z,1.57
2022-10-25T15:26:28.539Z,1.60
2022-10-25T15:29:43.568Z,1.27
2022-10-25T15:32:46.701Z,1.80
2022-10-25T15:35:54.065Z,1.80
2022-10-25T15:39:09.391Z,1.60
2022-10-25T15:42:16.014Z,2.70
2022-10-25T15:45:18.942Z,3.20
2022-10-25T15:48:25.487Z,2.72
2022-10-25T15:51:31.166Z,2.65
2022-10-25T15:54:34.908Z,3.57
2022-10-25T15:57:37.757Z,6.25
2022-10-25T16:00:40.637Z,5.25
2022-10-25T16:03:44.058Z,3.75
2022-10-25T16:06:47.604Z,4.30
2022-10-25T16:09:50.463Z,4.57
2022-10-25T16:13:10.100Z,6.90
2022-10-25T16:16:43.313Z,8.70
2022-10-25T16:19:45.930Z,6.12
2022-10-25T16:22:49.699Z,7.45
2022-10-25T16:25:54.069Z,13.17
2022-10-25T16:28:57.059Z,11.45
2022-10-25T16:31:59.654Z,10.23
2022-10-25T16:35:02.503Z,9.32
2022-10-25T16:38:06.786Z,15.93
2022-10-25T16:41:26.459Z,16.93
2022-10-25T16:44:29.143Z,14.85
2022-10-25T16:47:32.023Z,13.48
2022-10-25T16:50:35.968Z,12.10
2022-10-25T16:53:40.726Z,11.00
2022-10-25T16:56:43.310Z,11.53
2022-10-25T16:59:46.815Z,12.90
2022-10-25T17:02:50.077Z,15.50
2022-10-25T17:05:53.606Z,16.75
2022-10-25T17:09:01.368Z,24.98
2022-10-25T17:12:04.608Z,25.37
2022-10-25T17:15:08.345Z,27.08
2022-10-25T17:18:15.269Z,22.67
2022-10-25T17:21:18.664Z,24.75
2022-10-25T17:24:21.790Z,23.05
2022-10-25T17:27:24.714Z,19.23
2022-10-25T17:30:27.761Z,18.37
2022-10-25T17:33:32.382Z,17.37
2022-10-25T17:36:35.578Z,17.83
2022-10-25T17:39:38.606Z,17.58
2022-10-25T17:42:43.331Z,13.93
2022-10-25T17:45:46.474Z,13.52
2022-10-25T17:48:54.350Z,11.38
2022-10-25T17:51:58.444Z,15.43
2022-10-25T17:55:01.880Z,13.55
2022-10-25T17:58:06.324Z,15.20
2022-10-25T18:01:11.199Z,12.77
2022-10-25T18:04:14.608Z,13.27
2022-10-25T18:07:17.514Z,12.63
2022-10-25T18:10:21.139Z,13.15
2022-10-25T18:13:25.230Z,13.37
2022-10-25T18:16:31.441Z,13.45
2022-10-25T18:19:34.528Z,13.82
2022-10-25T18:22:38.531Z,11.82
2022-10-25T18:25:51.355Z,13.50
2022-10-25T18:28:55.451Z,13.93
2022-10-25T18:31:58.260Z,14.00
2022-10-25T18:35:01.615Z,15.30
2022-10-25T18:38:05.772Z,13.10
2022-10-25T18:41:10.891Z,14.65
2022-10-25T18:44:15.290Z,18.07
2022-10-25T18:47:18.859Z,18.95
2022-10-25T18:50:23.732Z,19.52
2022-10-25T18:53:28.088Z,16.98
2022-10-25T18:56:33.608Z,18.45
2022-10-25T18:59:38.304Z,15.30
2022-10-25T19:02:41.261Z,18.35
2022-10-25T19:05:45.071Z,17.35
2022-10-25T19:08:49.434Z,15.00
2022-10-25T19:11:52.624Z,12.00
2022-10-25T19:14:55.785Z,12.40
2022-10-25T19:17:59.162Z,11.48
2022-10-25T19:21:09.066Z,10.82
2022-10-25T19:24:16.387Z,9.88
2022-10-25T19:27:19.451Z,10.32
2022-10-25T19:30:24.230Z,9.33
2022-10-25T19:33:27.389Z,9.32
2022-10-25T19:36:31.173Z,9.65
2022-10-25T19:39:36.457Z,11.02
2022-10-25T19:42:39.815Z,10.50
2022-10-25T19:45:43.568Z,11.63
2022-10-25T19:48:49.461Z,10.00
2022-10-25T19:51:55.390Z,8.95
2022-10-25T19:54:58.861Z,7.75
2022-10-25T19:58:02.600Z,8.98
2022-10-25T20:01:06.326Z,10.23
2022-10-25T20:04:09.982Z,10.48
2022-10-25T20:07:12.663Z,10.48
2022-10-25T20:10:16.099Z,11.73
2022-10-25T20:13:20.193Z,11.82
2022-10-25T20:16:24.658Z,12.07
2022-10-25T20:19:27.870Z,11.75
2022-10-25T20:22:30.961Z,11.43
2022-10-25T20:25:33.900Z,12.13
2022-10-25T20:28:36.901Z,9.90
2022-10-25T20:31:42.742Z,13.20
2022-10-25T20:34:46.165Z,11.25
2022-10-25T20:37:49.313Z,11.05
2022-10-25T20:40:52.615Z,10.27
2022-10-25T20:44:04.391Z,10.13
2022-10-25T20:47:07.641Z,9.60
2022-10-25T20:50:10.573Z,10.00
2022-10-25T20:53:13.617Z,9.88
2022-10-25T20:56:18.172Z,9.40
2022-10-25T20:59:21.099Z,9.85
2022-10-25T21:02:24.687Z,9.03
2022-10-25T21:05:28.079Z,8.68
2022-10-25T21:08:31.576Z,8.55
2022-10-25T21:11:34.484Z,8.43
2022-10-25T21:14:37.132Z,8.45
2022-10-25T21:17:40.049Z,9.83
2022-10-25T21:20:43.842Z,10.68
2022-10-25T21:23:49.132Z,10.30
2022-10-25T21:26:51.973Z,10.70
2022-10-25T21:29:57.083Z,9.60
2022-10-25T21:33:00.641Z,9.50
2022-10-25T21:36:09.284Z,9.23
2022-10-25T21:39:11.880Z,9.30
2022-10-25T21:42:15.737Z,10.48
2022-10-25T21:45:18.270Z,9.50
2022-10-25T21:48:21.220Z,9.53
2022-10-25T21:51:27.111Z,9.77
2022-10-25T21:54:30.082Z,9.45
2022-10-25T21:57:33.935Z,8.57
2022-10-25T22:00:36.827Z,8.90
2022-10-25T22:03:40.275Z,8.90
2022-10-25T22:06:42.909Z,9.20
2022-10-25T22:09:48.542Z,8.65
2022-10-25T22:12:51.532Z,8.52
2022-10-25T22:16:04.878Z,9.10
2022-10-25T22:19:15.838Z,8.67
2022-10-25T22:22:18.755Z,8.10
2022-10-25T22:25:23.319Z,9.55
2022-10-25T22:28:26.298Z,8.32
2022-10-25T22:31:29.731Z,7.57
2022-10-25T22:34:32.733Z,7.63
2022-10-25T22:37:35.336Z,8.07
2022-10-25T22:40:42.163Z,9.20
2022-10-25T22:43:45.509Z,8.88
2022-10-25T22:46:48.459Z,8.45
2022-10-25T22:49:52.515Z,7.30
2022-10-25T22:52:58.349Z,5.80
2022-10-25T22:56:17.422Z,6.53
2022-10-25T22:59:20.298Z,6.10
2022-10-25T23:02:23.184Z,5.55
2022-10-25T23:05:26.065Z,5.73
2022-10-25T23:08:29.507Z,4.70
2022-10-25T23:11:35.703Z,5.12
2022-10-25T23:14:38.310Z,5.40
2022-10-25T23:17:43.596Z,5.35
2022-10-25T23:20:54.918Z,5.23
2022-10-25T23:24:00.070Z,5.00
2022-10-25T23:27:02.762Z,5.55
2022-10-25T23:30:08.731Z,4.80
2022-10-25T23:33:14.094Z,4.78
2022-10-25T23:36:22.224Z,5.30
2022-10-25T23:39:25.138Z,5.25
2022-10-25T23:42:27.992Z,5.35
2022-10-25T23:45:32.438Z,5.57
2022-10-25T23:48:36.580Z,5.82
2022-10-25T23:51:39.284Z,5.10
2022-10-25T23:54:42.217Z,5.15
2022-10-25T23:57:44.833Z,4.93
